createdAt,value
2023-04-11T00:00:52.823Z,1.00
2023-04-11T00:01:54.791Z,1.37
2023-04-11T00:03:01.712Z,1.13
2023-04-11T00:04:04.404Z,1.13
2023-04-11T00:05:07.564Z,1.20
2023-04-11T00:06:09.772Z,1.10
2023-04-11T00:07:11.833Z,1.03
2023-04-11T00:08:13.812Z,1.10
2023-04-11T00:09:16.874Z,1.37
2023-04-11T00:10:18.677Z,1.17
2023-04-11T00:11:21.022Z,1.10
2023-04-11T00:12:23.246Z,1.13
2023-04-11T00:13:26.620Z,0.83
2023-04-11T00:14:32.381Z,1.00
2023-04-11T00:15:34.462Z,1.40
2023-04-11T00:16:36.436Z,1.33
2023-04-11T00:17:38.470Z,1.13
2023-04-11T00:18:45.036Z,0.90
2023-04-11T00:19:47.243Z,1.10
2023-04-11T00:20:49.246Z,1.07
2023-04-11T00:21:52.434Z,1.10
2023-04-11T00:22:54.282Z,1.07
2023-04-11T00:23:56.351Z,0.83
2023-04-11T00:24:58.224Z,1.03
2023-04-11T00:26:00.147Z,0.90
2023-04-11T00:27:02.388Z,1.40
2023-04-11T00:28:04.576Z,1.03
2023-04-11T00:29:06.689Z,0.90
2023-04-11T00:30:09.084Z,1.00
2023-04-11T00:31:12.662Z,1.23
2023-04-11T00:32:14.477Z,1.10
2023-04-11T00:33:16.680Z,1.10
2023-04-11T00:34:18.485Z,1.07
2023-04-11T00:35:20.409Z,1.10
2023-04-11T00:36:23.085Z,1.00
2023-04-11T00:37:25.465Z,0.90
2023-04-11T00:38:27.534Z,1.10
2023-04-11T00:39:32.137Z,1.00
2023-04-11T00:40:34.111Z,0.90
2023-04-11T00:41:36.230Z,1.30
2023-04-11T00:42:39.429Z,1.00
2023-04-11T00:43:41.977Z,0.90
2023-04-11T00:44:43.835Z,1.10
2023-04-11T00:45:46.525Z,1.00
2023-04-11T00:46:48.389Z,1.10
2023-04-11T00:47:51.215Z,1.00
2023-04-11T00:48:54.316Z,0.80
2023-04-11T00:49:56.392Z,1.17
2023-04-11T00:50:58.525Z,0.90
2023-04-11T00:52:02.795Z,1.20
2023-04-11T00:53:04.670Z,1.00
2023-04-11T00:54:10.464Z,0.83
2023-04-11T00:55:12.428Z,1.03
2023-04-11T00:56:14.690Z,0.87
2023-04-11T00:57:16.925Z,1.00
2023-04-11T00:58:19.165Z,1.00
2023-04-11T00:59:21.011Z,1.00
2023-04-11T01:00:24.638Z,0.80
2023-04-11T01:01:26.598Z,1.10
2023-04-11T01:02:28.559Z,1.10
2023-04-11T01:03:31.039Z,0.93
2023-04-11T01:04:33.023Z,0.90
2023-04-11T01:05:36.633Z,0.80
2023-04-11T01:06:39.000Z,1.03
2023-04-11T01:07:45.701Z,0.93
2023-04-11T01:08:48.911Z,1.03
2023-04-11T01:09:53.483Z,1.10
2023-04-11T01:10:55.591Z,1.00
2023-04-11T01:11:59.198Z,1.00
2023-04-11T01:13:01.909Z,1.10
2023-04-11T01:14:04.424Z,0.70
2023-04-11T01:15:07.281Z,0.90
2023-04-11T01:16:10.177Z,1.00
2023-04-11T01:17:13.330Z,0.90
2023-04-11T01:18:15.560Z,0.93
2023-04-11T01:19:23.509Z,0.83
2023-04-11T01:20:26.624Z,1.00
2023-04-11T01:21:29.126Z,1.37
2023-04-11T01:22:31.808Z,1.00
2023-04-11T01:23:34.441Z,0.90
2023-04-11T01:24:38.039Z,1.00
2023-04-11T01:25:39.996Z,1.10
2023-04-11T01:26:48.917Z,0.90
2023-04-11T01:27:52.292Z,0.83
2023-04-11T01:28:54.271Z,0.90
2023-04-11T01:29:56.380Z,0.70
2023-04-11T01:30:58.246Z,1.10
2023-04-11T01:32:00.334Z,1.03
2023-04-11T01:33:02.200Z,0.90
2023-04-11T01:34:05.288Z,1.00
2023-04-11T01:35:08.940Z,0.83
2023-04-11T01:36:12.460Z,1.00
2023-04-11T01:37:14.418Z,0.80
2023-04-11T01:38:16.282Z,0.90
2023-04-11T01:39:18.169Z,0.87
2023-04-11T01:40:21.282Z,0.80
2023-04-11T01:41:26.773Z,1.00
2023-04-11T01:42:32.660Z,1.00
2023-04-11T01:43:34.705Z,0.80
2023-04-11T01:44:37.796Z,0.90
2023-04-11T01:45:40.933Z,0.70
2023-04-11T01:46:44.036Z,1.07
2023-04-11T01:47:46.649Z,1.00
2023-04-11T01:48:56.169Z,0.87
2023-04-11T01:49:58.226Z,0.83
2023-04-11T01:51:00.107Z,1.00
2023-04-11T01:52:02.031Z,0.90
2023-04-11T01:53:04.676Z,1.10
2023-04-11T01:54:06.503Z,0.83
2023-04-11T01:55:08.917Z,0.93
2023-04-11T01:56:11.565Z,0.93
2023-04-11T01:57:13.940Z,1.00
2023-04-11T01:58:15.955Z,0.80
2023-04-11T01:59:17.988Z,0.97
2023-04-11T02:00:20.571Z,0.90
2023-04-11T02:01:23.843Z,1.07
2023-04-11T02:02:26.101Z,0.97
2023-04-11T02:03:28.368Z,0.90
2023-04-11T02:04:30.447Z,0.90
2023-04-11T02:05:32.721Z,1.10
2023-04-11T02:06:34.561Z,0.80
2023-04-11T02:07:37.460Z,0.80
2023-04-11T02:08:39.350Z,0.87
2023-04-11T02:09:41.237Z,0.87
2023-04-11T02:10:43.517Z,0.70
2023-04-11T02:11:45.745Z,0.80
2023-04-11T02:12:47.610Z,1.00
2023-04-11T02:13:49.799Z,0.80
2023-04-11T02:14:51.919Z,0.80
2023-04-11T02:15:53.845Z,0.60
2023-04-11T02:16:56.762Z,1.00
2023-04-11T02:18:00.246Z,0.70
2023-04-11T02:19:03.605Z,0.90
2023-04-11T02:20:06.990Z,1.00
2023-04-11T02:21:08.899Z,0.90
2023-04-11T02:22:16.091Z,0.90
2023-04-11T02:23:17.997Z,0.90
2023-04-11T02:24:19.868Z,0.80
2023-04-11T02:25:21.771Z,0.90
2023-04-11T02:26:26.665Z,0.93
2023-04-11T02:27:28.556Z,0.70
2023-04-11T02:28:30.784Z,0.90
2023-04-11T02:29:33.732Z,0.80
2023-04-11T02:30:35.869Z,1.00
2023-04-11T02:31:38.509Z,0.80
2023-04-11T02:32:40.572Z,0.87
2023-04-11T02:33:42.446Z,0.90
2023-04-11T02:34:44.346Z,0.87
2023-04-11T02:35:47.103Z,0.70
2023-04-11T02:36:49.692Z,0.70
2023-04-11T02:37:51.795Z,0.80
2023-04-11T02:38:53.962Z,0.80
2023-04-11T02:39:56.354Z,0.90
2023-04-11T02:40:59.459Z,1.00
2023-04-11T02:42:01.386Z,0.80
2023-04-11T02:43:03.452Z,0.90
2023-04-11T02:44:05.587Z,0.73
2023-04-11T02:45:08.461Z,0.80
2023-04-11T02:46:13.295Z,0.80
2023-04-11T02:47:15.581Z,0.60
2023-04-11T02:48:17.440Z,0.80
2023-04-11T02:49:20.087Z,0.90
2023-04-11T02:50:21.914Z,0.70
2023-04-11T02:51:23.856Z,0.97
2023-04-11T02:52:26.121Z,0.83
2023-04-11T02:53:28.025Z,0.40
2023-04-11T02:54:29.848Z,1.00
2023-04-11T02:55:31.665Z,0.80
2023-04-11T02:56:34.916Z,0.77
2023-04-11T02:57:36.829Z,0.70
2023-04-11T02:58:41.958Z,0.70
2023-04-11T02:59:44.043Z,0.67
2023-04-11T03:00:46.409Z,0.73
2023-04-11T03:01:48.385Z,0.90
2023-04-11T03:02:50.551Z,0.90
2023-04-11T03:03:52.774Z,0.80
2023-04-11T03:04:54.703Z,0.70
2023-04-11T03:05:57.064Z,0.70
2023-04-11T03:06:58.942Z,0.70
2023-04-11T03:08:00.832Z,0.80
2023-04-11T03:09:02.706Z,0.67
2023-04-11T03:10:05.478Z,0.70
2023-04-11T03:11:07.435Z,0.60
2023-04-11T03:12:09.228Z,0.70
2023-04-11T03:13:11.111Z,0.63
2023-04-11T03:14:13.109Z,0.60
2023-04-11T03:15:17.708Z,0.70
2023-04-11T03:16:19.988Z,0.73
2023-04-11T03:17:21.966Z,0.70
2023-04-11T03:18:24.246Z,0.80
2023-04-11T03:19:26.047Z,0.70
2023-04-11T03:20:27.891Z,1.00
2023-04-11T03:21:31.552Z,0.90
2023-04-11T03:22:33.475Z,0.83
2023-04-11T03:23:35.448Z,0.87
2023-04-11T03:24:39.410Z,0.87
2023-04-11T03:25:44.516Z,0.93
2023-04-11T03:26:46.430Z,1.00
2023-04-11T03:27:48.875Z,1.07
2023-04-11T03:28:50.735Z,0.70
2023-04-11T03:29:52.640Z,0.80
2023-04-11T03:30:55.222Z,0.83
2023-04-11T03:31:57.067Z,0.90
2023-04-11T03:33:02.377Z,0.90
2023-04-11T03:34:04.349Z,0.90
2023-04-11T03:35:06.481Z,0.90
2023-04-11T03:36:08.744Z,0.93
2023-04-11T03:37:10.642Z,0.60
2023-04-11T03:38:12.591Z,0.80
2023-04-11T03:39:14.474Z,0.80
2023-04-11T03:40:18.492Z,0.80
2023-04-11T03:41:20.442Z,0.70
2023-04-11T03:42:22.362Z,1.00
2023-04-11T03:43:24.244Z,0.80
2023-04-11T03:44:26.081Z,0.70
2023-04-11T03:45:28.317Z,0.77
2023-04-11T03:46:30.312Z,0.80
2023-04-11T03:47:32.412Z,0.80
2023-04-11T03:48:34.327Z,0.70
2023-04-11T03:49:36.177Z,0.60
2023-04-11T03:50:38.715Z,0.90
2023-04-11T03:51:40.713Z,0.57
2023-04-11T03:52:42.605Z,0.90
2023-04-11T03:53:44.385Z,0.60
2023-04-11T03:54:47.775Z,0.70
2023-04-11T03:55:49.841Z,0.80
2023-04-11T03:56:51.742Z,0.83
2023-04-11T03:57:53.633Z,0.70
2023-04-11T03:58:55.615Z,0.80
2023-04-11T03:59:58.410Z,0.50
2023-04-11T04:01:00.275Z,0.70
2023-04-11T04:02:02.404Z,0.70
2023-04-11T04:03:04.436Z,0.70
2023-04-11T04:04:07.323Z,0.70
2023-04-11T04:05:09.679Z,0.80
2023-04-11T04:06:11.617Z,0.60
2023-04-11T04:07:13.549Z,0.67
2023-04-11T04:08:15.400Z,0.87
2023-04-11T04:09:17.281Z,0.53
2023-04-11T04:10:19.130Z,0.60
2023-04-11T04:11:21.343Z,0.43
2023-04-11T04:12:23.302Z,0.70
2023-04-11T04:13:27.552Z,0.67
2023-04-11T04:14:29.427Z,0.60
2023-04-11T04:15:31.391Z,0.60
2023-04-11T04:16:33.328Z,0.70
2023-04-11T04:17:35.379Z,0.50
2023-04-11T04:18:37.221Z,0.50
2023-04-11T04:19:39.362Z,0.60
2023-04-11T04:20:42.029Z,0.23
2023-04-11T04:21:45.714Z,0.53
2023-04-11T04:22:47.696Z,0.60
2023-04-11T04:23:49.586Z,0.60
2023-04-11T04:24:51.839Z,0.60
2023-04-11T04:25:53.780Z,0.60
2023-04-11T04:27:00.892Z,0.50
2023-04-11T04:28:03.229Z,0.80
2023-04-11T04:29:05.956Z,0.60
2023-04-11T04:30:08.701Z,0.60
2023-04-11T04:31:10.527Z,0.70
2023-04-11T04:32:23.167Z,0.40
2023-04-11T04:33:27.563Z,0.70
2023-04-11T04:34:29.645Z,0.50
2023-04-11T04:35:31.580Z,0.70
2023-04-11T04:36:33.448Z,0.67
2023-04-11T04:37:39.486Z,0.80
2023-04-11T04:38:42.214Z,0.57
2023-04-11T04:39:44.164Z,0.50
2023-04-11T04:40:46.850Z,0.50
2023-04-11T04:41:49.982Z,0.50
2023-04-11T04:42:58.723Z,0.70
2023-04-11T04:44:01.026Z,0.60
2023-04-11T04:45:03.429Z,0.70
2023-04-11T04:46:05.894Z,0.63
2023-04-11T04:47:07.792Z,0.60
2023-04-11T04:48:09.601Z,0.57
2023-04-11T04:49:11.470Z,0.70
2023-04-11T04:50:13.307Z,0.67
2023-04-11T04:51:15.470Z,0.50
2023-04-11T04:52:17.455Z,0.80
2023-04-11T04:53:19.282Z,0.60
2023-04-11T04:54:21.243Z,0.80
2023-04-11T04:55:23.078Z,0.40
2023-04-11T04:56:28.698Z,0.53
2023-04-11T04:57:33.702Z,0.50
2023-04-11T04:58:35.581Z,0.73
2023-04-11T04:59:37.440Z,0.60
2023-04-11T05:00:40.218Z,0.70
2023-04-11T05:01:42.823Z,0.53
2023-04-11T05:02:45.012Z,0.77
2023-04-11T05:03:50.834Z,0.60
2023-04-11T05:04:57.099Z,0.67
2023-04-11T05:05:59.569Z,0.60
2023-04-11T05:07:01.637Z,0.83
2023-04-11T05:08:04.130Z,0.70
2023-04-11T05:09:06.210Z,0.60
2023-04-11T05:10:08.694Z,0.50
2023-04-11T05:11:10.530Z,0.60
2023-04-11T05:12:13.822Z,0.50
2023-04-11T05:13:15.952Z,0.60
2023-04-11T05:14:18.007Z,0.70
2023-04-11T05:15:21.244Z,0.70
2023-04-11T05:16:23.327Z,0.50
2023-04-11T05:17:26.243Z,0.57
2023-04-11T05:18:30.491Z,0.43
2023-04-11T05:19:33.146Z,0.47
2023-04-11T05:20:34.991Z,0.73
2023-04-11T05:21:38.752Z,0.60
2023-04-11T05:22:42.188Z,0.50
2023-04-11T05:23:44.322Z,0.50
2023-04-11T05:24:46.184Z,0.50
2023-04-11T05:25:48.083Z,0.40
2023-04-11T05:26:50.314Z,0.60
2023-04-11T05:27:52.175Z,0.60
2023-04-11T05:28:54.041Z,0.60
2023-04-11T05:29:55.919Z,0.77
2023-04-11T05:30:57.805Z,0.70
2023-04-11T05:31:59.735Z,0.70
2023-04-11T05:33:01.843Z,0.60
2023-04-11T05:34:04.421Z,0.53
2023-04-11T05:35:06.993Z,0.40
2023-04-11T05:36:18.277Z,0.50
2023-04-11T05:37:20.401Z,0.60
2023-04-11T05:38:22.322Z,0.50
2023-04-11T05:39:24.210Z,0.50
2023-04-11T05:40:26.066Z,0.50
2023-04-11T05:41:27.991Z,0.50
2023-04-11T05:42:29.898Z,0.70
2023-04-11T05:43:31.823Z,0.67
2023-04-11T05:44:33.717Z,0.47
2023-04-11T05:45:35.695Z,0.40
2023-04-11T05:46:37.654Z,0.40
2023-04-11T05:47:39.643Z,0.70
2023-04-11T05:48:41.621Z,0.50
2023-04-11T05:49:43.721Z,0.50
2023-04-11T05:50:46.447Z,0.50
2023-04-11T05:51:48.389Z,0.60
2023-04-11T05:52:50.426Z,0.60
2023-04-11T05:53:52.314Z,0.57
2023-04-11T05:54:54.159Z,0.30
2023-04-11T05:55:56.110Z,0.40
2023-04-11T05:56:57.925Z,0.77
2023-04-11T05:58:00.048Z,0.50
2023-04-11T05:59:01.983Z,0.50
2023-04-11T06:00:14.214Z,0.50
2023-04-11T06:01:18.770Z,0.40
2023-04-11T06:02:21.147Z,0.77
2023-04-11T06:03:23.575Z,0.50
2023-04-11T06:04:25.779Z,0.50
2023-04-11T06:05:31.642Z,0.50
2023-04-11T06:06:33.961Z,0.43
2023-04-11T06:07:35.863Z,0.60
2023-04-11T06:08:38.438Z,0.50
2023-04-11T06:09:42.496Z,0.40
2023-04-11T06:10:44.421Z,0.43
2023-04-11T06:11:46.339Z,0.60
2023-04-11T06:12:48.274Z,0.50
2023-04-11T06:13:50.349Z,0.50
2023-04-11T06:14:52.286Z,0.30
2023-04-11T06:15:54.315Z,0.47
2023-04-11T06:16:56.184Z,0.50
2023-04-11T06:17:58.282Z,0.43
2023-04-11T06:19:00.182Z,0.57
2023-04-11T06:20:03.604Z,0.40
2023-04-11T06:21:07.438Z,0.40
2023-04-11T06:22:09.262Z,0.60
2023-04-11T06:23:11.109Z,0.57
2023-04-11T06:24:12.980Z,0.60
2023-04-11T06:25:15.037Z,0.40
2023-04-11T06:26:16.885Z,0.50
2023-04-11T06:27:18.730Z,0.60
2023-04-11T06:28:20.704Z,0.33
2023-04-11T06:29:22.519Z,0.30
2023-04-11T06:30:24.463Z,0.47
2023-04-11T06:31:26.361Z,0.57
2023-04-11T06:32:28.426Z,0.47
2023-04-11T06:33:30.442Z,0.30
2023-04-11T06:34:32.370Z,0.40
2023-04-11T06:35:34.191Z,0.40
2023-04-11T06:36:37.257Z,0.57
2023-04-11T06:37:39.241Z,0.50
2023-04-11T06:38:41.625Z,0.70
2023-04-11T06:39:43.659Z,0.57
2023-04-11T06:40:45.570Z,0.40
2023-04-11T06:41:48.141Z,0.60
2023-04-11T06:42:49.959Z,0.40
2023-04-11T06:43:51.878Z,0.50
2023-04-11T06:44:54.037Z,0.53
2023-04-11T06:45:56.140Z,0.53
2023-04-11T06:46:59.389Z,0.53
2023-04-11T06:48:01.398Z,0.43
2023-04-11T06:49:03.447Z,0.53
2023-04-11T06:50:06.328Z,0.63
2023-04-11T06:51:10.415Z,0.50
2023-04-11T06:52:12.328Z,0.30
2023-04-11T06:53:14.242Z,0.40
2023-04-11T06:54:19.380Z,0.40
2023-04-11T06:55:22.941Z,0.47
2023-04-11T06:56:24.793Z,0.50
2023-04-11T06:57:26.608Z,0.40
2023-04-11T06:58:28.425Z,0.30
2023-04-11T06:59:30.461Z,0.80
2023-04-11T07:00:32.338Z,0.47
2023-04-11T07:01:37.930Z,0.67
2023-04-11T07:02:40.057Z,0.33
2023-04-11T07:03:42.272Z,0.57
2023-04-11T07:04:44.521Z,0.50
2023-04-11T07:05:47.136Z,0.60
2023-04-11T07:06:49.044Z,0.70
2023-04-11T07:07:51.078Z,0.40
2023-04-11T07:08:52.956Z,0.50
2023-04-11T07:09:54.888Z,0.60
2023-04-11T07:10:56.810Z,0.50
2023-04-11T07:11:58.729Z,0.70
2023-04-11T07:13:00.653Z,0.43
2023-04-11T07:14:02.728Z,0.50
2023-04-11T07:15:05.041Z,0.83
2023-04-11T07:16:07.583Z,0.40
2023-04-11T07:17:09.718Z,0.40
2023-04-11T07:18:11.667Z,0.53
2023-04-11T07:19:13.587Z,0.50
2023-04-11T07:20:16.424Z,0.97
2023-04-11T07:21:18.434Z,0.33
2023-04-11T07:22:20.378Z,0.40
2023-04-11T07:23:23.804Z,0.60
2023-04-11T07:24:26.054Z,0.50
2023-04-11T07:25:30.780Z,0.70
2023-04-11T07:26:33.031Z,0.70
2023-04-11T07:27:36.304Z,0.60
2023-04-11T07:28:40.219Z,0.40
2023-04-11T07:29:42.176Z,0.60
2023-04-11T07:30:44.073Z,0.63
2023-04-11T07:31:46.009Z,0.70
2023-04-11T07:32:47.876Z,0.50
2023-04-11T07:33:49.730Z,0.70
2023-04-11T07:34:51.604Z,0.60
2023-04-11T07:35:53.478Z,0.73
2023-04-11T07:37:00.766Z,0.53
2023-04-11T07:38:02.746Z,0.73
2023-04-11T07:39:09.061Z,0.53
2023-04-11T07:40:14.149Z,0.50
2023-04-11T07:41:16.422Z,0.60
2023-04-11T07:42:18.449Z,0.50
2023-04-11T07:43:20.277Z,0.50
2023-04-11T07:44:23.292Z,0.50
2023-04-11T07:45:26.101Z,0.30
2023-04-11T07:46:27.938Z,0.50
2023-04-11T07:47:29.809Z,0.67
2023-04-11T07:48:32.136Z,0.50
2023-04-11T07:49:33.993Z,0.50
2023-04-11T07:50:35.983Z,0.47
2023-04-11T07:51:38.147Z,0.47
2023-04-11T07:52:40.088Z,0.50
2023-04-11T07:53:41.881Z,0.50
2023-04-11T07:54:43.790Z,0.50
2023-04-11T07:55:45.750Z,0.67
2023-04-11T07:56:47.651Z,0.20
2023-04-11T07:57:49.517Z,0.47
2023-04-11T07:58:51.304Z,0.50
2023-04-11T07:59:53.170Z,0.43
2023-04-11T08:00:55.062Z,0.53
2023-04-11T08:02:01.287Z,0.40
2023-04-11T08:03:08.904Z,0.60
2023-04-11T08:04:11.657Z,0.50
2023-04-11T08:05:13.668Z,0.30
2023-04-11T08:06:16.039Z,0.43
2023-04-11T08:07:18.102Z,0.57
2023-04-11T08:08:19.963Z,0.47
2023-04-11T08:09:21.796Z,0.53
2023-04-11T08:10:25.223Z,0.60
2023-04-11T08:11:27.205Z,0.43
2023-04-11T08:12:29.028Z,0.40
2023-04-11T08:13:30.853Z,0.30
2023-04-11T08:14:32.772Z,0.40
2023-04-11T08:15:36.919Z,0.40
2023-04-11T08:16:38.888Z,0.30
2023-04-11T08:17:41.222Z,0.30
2023-04-11T08:18:43.209Z,0.63
2023-04-11T08:19:45.097Z,0.30
2023-04-11T08:20:48.668Z,0.50
2023-04-11T08:21:50.540Z,0.60
2023-04-11T08:22:52.410Z,0.40
2023-04-11T08:23:54.653Z,0.47
2023-04-11T08:24:57.066Z,0.50
2023-04-11T08:25:58.952Z,0.57
2023-04-11T08:27:00.805Z,0.60
2023-04-11T08:28:03.921Z,0.40
2023-04-11T08:29:05.745Z,0.43
2023-04-11T08:30:08.766Z,0.30
2023-04-11T08:31:13.184Z,0.70
2023-04-11T08:32:15.620Z,0.47
2023-04-11T08:33:17.521Z,0.40
2023-04-11T08:34:19.405Z,0.40
2023-04-11T08:35:21.538Z,0.50
2023-04-11T08:36:23.464Z,0.43
2023-04-11T08:37:25.423Z,0.50
2023-04-11T08:38:27.375Z,0.70
2023-04-11T08:39:29.262Z,0.70
2023-04-11T08:40:31.418Z,0.50
2023-04-11T08:41:35.821Z,0.40
2023-04-11T08:42:37.716Z,0.37
2023-04-11T08:43:40.413Z,0.30
2023-04-11T08:44:42.254Z,0.40
2023-04-11T08:45:44.206Z,0.40
2023-04-11T08:46:46.056Z,0.40
2023-04-11T08:47:47.982Z,0.40
2023-04-11T08:48:51.010Z,0.40
2023-04-11T08:49:54.132Z,0.40
2023-04-11T08:50:57.142Z,0.40
2023-04-11T08:52:00.621Z,0.40
2023-04-11T08:53:03.899Z,0.50
2023-04-11T08:54:07.084Z,0.60
2023-04-11T08:55:09.686Z,0.33
2023-04-11T08:56:17.072Z,0.50
2023-04-11T08:57:27.806Z,0.40
2023-04-11T08:58:29.980Z,0.33
2023-04-11T08:59:33.846Z,0.30
2023-04-11T09:00:36.017Z,0.40
2023-04-11T09:01:40.699Z,0.40
2023-04-11T09:02:57.632Z,0.20
2023-04-11T09:04:05.509Z,0.50
2023-04-11T09:05:08.543Z,0.40
2023-04-11T09:06:11.080Z,0.50
2023-04-11T09:07:13.896Z,0.32
2023-04-11T09:08:17.418Z,0.40
2023-04-11T09:09:31.023Z,0.30
2023-04-11T09:10:33.324Z,0.50
2023-04-11T09:11:55.280Z,0.40
2023-04-11T09:12:59.028Z,0.30
2023-04-11T09:14:07.686Z,0.50
2023-04-11T09:15:21.257Z,0.53
2023-04-11T09:16:23.139Z,0.60
2023-04-11T09:17:25.093Z,0.50
2023-04-11T09:18:38.736Z,0.33
2023-04-11T09:19:47.515Z,0.63
2023-04-11T09:21:01.213Z,0.43
2023-04-11T09:22:07.400Z,0.80
2023-04-11T09:23:24.330Z,0.50
2023-04-11T09:24:33.969Z,0.50
2023-04-11T09:25:44.858Z,0.53
2023-04-11T09:26:46.731Z,0.50
2023-04-11T09:27:49.791Z,0.43
2023-04-11T09:28:54.284Z,0.50
2023-04-11T09:29:56.664Z,0.67
2023-04-11T09:30:58.493Z,0.40
2023-04-11T09:32:00.416Z,0.47
2023-04-11T09:33:25.753Z,0.67
2023-04-11T09:34:29.238Z,0.93
2023-04-11T09:35:31.188Z,0.90
2023-04-11T09:36:33.165Z,0.40
2023-04-11T09:37:52.781Z,0.90
2023-04-11T09:38:55.997Z,0.53
2023-04-11T09:40:00.931Z,0.50
2023-04-11T09:41:04.612Z,0.57
2023-04-11T09:42:25.350Z,0.80
2023-04-11T09:43:28.121Z,0.70
2023-04-11T09:44:38.509Z,0.77
2023-04-11T09:45:51.793Z,0.70
2023-04-11T09:47:00.283Z,1.00
2023-04-11T09:48:02.444Z,0.70
2023-04-11T09:49:04.873Z,0.87
2023-04-11T09:50:07.867Z,0.80
2023-04-11T09:51:11.497Z,0.70
2023-04-11T09:52:14.912Z,0.80
2023-04-11T09:53:17.428Z,2.07
2023-04-11T09:54:22.519Z,0.97
2023-04-11T09:55:25.925Z,1.23
2023-04-11T09:56:31.264Z,1.50
2023-04-11T09:57:36.136Z,1.10
2023-04-11T09:58:40.341Z,1.20
2023-04-11T09:59:44.114Z,1.00
2023-04-11T10:00:48.342Z,1.13
2023-04-11T10:01:51.663Z,1.37
2023-04-11T10:02:54.051Z,1.57
2023-04-11T10:03:57.396Z,1.33
2023-04-11T10:05:04.310Z,1.37
2023-04-11T10:06:12.365Z,1.20
2023-04-11T10:07:17.142Z,1.17
2023-04-11T10:08:34.508Z,1.93
2023-04-11T10:09:42.152Z,0.90
2023-04-11T10:10:44.580Z,1.40
2023-04-11T10:11:46.628Z,0.93
2023-04-11T10:12:49.687Z,1.03
2023-04-11T10:13:51.847Z,1.03
2023-04-11T10:14:56.823Z,1.27
2023-04-11T10:16:15.734Z,1.07
2023-04-11T10:17:23.054Z,1.13
2023-04-11T10:18:25.941Z,1.27
2023-04-11T10:19:27.918Z,0.97
2023-04-11T10:20:38.918Z,1.20
2023-04-11T10:21:42.674Z,1.07
2023-04-11T10:23:00.042Z,0.87
2023-04-11T10:24:30.506Z,1.20
2023-04-11T10:26:00.632Z,1.07
2023-04-11T10:27:04.792Z,1.20
2023-04-11T10:28:06.764Z,1.10
2023-04-11T10:29:45.670Z,1.43
2023-04-11T10:31:02.059Z,1.30
2023-04-11T10:32:16.533Z,1.60
2023-04-11T10:33:21.217Z,1.57
2023-04-11T10:34:22.992Z,1.50
2023-04-11T10:35:25.173Z,1.70
2023-04-11T10:36:27.055Z,1.87
2023-04-11T10:37:36.903Z,1.97
2023-04-11T10:38:42.886Z,1.40
2023-04-11T10:39:53.668Z,1.50
2023-04-11T10:41:22.888Z,1.40
2023-04-11T10:42:28.740Z,1.63
2023-04-11T10:43:31.216Z,1.63
2023-04-11T10:44:33.215Z,1.60
2023-04-11T10:45:39.890Z,1.70
2023-04-11T10:46:54.123Z,1.73
2023-04-11T10:48:07.679Z,1.50
2023-04-11T10:49:09.748Z,1.70
2023-04-11T10:50:26.801Z,1.53
2023-04-11T10:51:31.549Z,1.60
2023-04-11T10:52:38.516Z,1.60
2023-04-11T10:53:40.963Z,1.60
2023-04-11T10:54:45.960Z,1.50
2023-04-11T10:55:50.996Z,1.60
2023-04-11T10:56:56.149Z,1.40
2023-04-11T10:58:19.515Z,1.80
2023-04-11T10:59:36.388Z,1.50
2023-04-11T11:00:50.136Z,1.70
2023-04-11T11:01:56.220Z,1.73
2023-04-11T11:02:58.511Z,1.50
2023-04-11T11:04:01.034Z,1.50
2023-04-11T11:05:15.864Z,1.33
2023-04-11T11:06:17.795Z,1.50
2023-04-11T11:07:19.649Z,1.63
2023-04-11T11:08:34.057Z,1.80
2023-04-11T11:09:36.267Z,1.63
2023-04-11T11:10:48.261Z,1.33
2023-04-11T11:12:10.082Z,1.37
2023-04-11T11:13:17.177Z,1.47
2023-04-11T11:14:30.172Z,1.47
2023-04-11T11:15:37.870Z,1.42
2023-04-11T11:16:46.366Z,1.50
2023-04-11T11:17:48.369Z,1.70
2023-04-11T11:18:54.651Z,1.40
2023-04-11T11:19:56.652Z,1.30
2023-04-11T11:20:58.786Z,1.50
2023-04-11T11:22:03.660Z,1.43
2023-04-11T11:23:09.123Z,1.50
2023-04-11T11:24:11.455Z,1.40
2023-04-11T11:25:13.872Z,1.53
2023-04-11T11:26:15.712Z,1.37
2023-04-11T11:27:25.116Z,1.27
2023-04-11T11:29:38.040Z,1.70
2023-04-11T11:30:55.724Z,1.60
2023-04-11T11:31:57.703Z,1.47
2023-04-11T11:32:59.853Z,1.50
2023-04-11T11:34:18.271Z,1.40
2023-04-11T11:35:25.016Z,1.20
2023-04-11T11:36:28.200Z,1.40
2023-04-11T11:37:30.255Z,1.00
2023-04-11T11:38:32.276Z,1.40
2023-04-11T11:39:35.371Z,1.40
2023-04-11T11:40:37.406Z,1.30
2023-04-11T11:41:40.924Z,1.20
2023-04-11T11:42:42.817Z,1.00
2023-04-11T11:43:44.698Z,1.30
2023-04-11T11:44:46.623Z,1.20
2023-04-11T11:46:15.006Z,1.03
2023-04-11T11:47:17.093Z,1.00
2023-04-11T11:48:25.717Z,1.13
2023-04-11T11:49:27.620Z,1.40
2023-04-11T11:50:32.304Z,0.97
2023-04-11T11:51:46.647Z,1.30
2023-04-11T11:52:48.836Z,1.10
2023-04-11T11:54:09.466Z,1.37
2023-04-11T11:55:20.174Z,0.93
2023-04-11T11:56:22.061Z,1.10
2023-04-11T11:57:23.973Z,0.90
2023-04-11T11:58:26.414Z,1.13
2023-04-11T11:59:28.660Z,1.10
2023-04-11T12:00:41.164Z,1.10
2023-04-11T12:01:43.335Z,0.83
2023-04-11T12:02:45.824Z,0.80
2023-04-11T12:03:51.573Z,1.00
2023-04-11T12:05:04.118Z,1.00
2023-04-11T12:06:10.545Z,1.20
2023-04-11T12:07:12.402Z,1.05
2023-04-11T12:08:14.946Z,1.20
2023-04-11T12:09:16.877Z,1.13
2023-04-11T12:10:18.690Z,1.08
2023-04-11T12:11:20.655Z,1.23
2023-04-11T12:12:22.438Z,1.00
2023-04-11T12:13:28.159Z,1.10
2023-04-11T12:14:30.034Z,0.90
2023-04-11T12:15:35.711Z,0.97
2023-04-11T12:16:38.619Z,0.93
2023-04-11T12:17:40.923Z,0.90
2023-04-11T12:18:43.779Z,1.15
2023-04-11T12:19:45.647Z,0.70
2023-04-11T12:20:47.753Z,1.00
2023-04-11T12:21:49.610Z,0.87
2023-04-11T12:22:53.661Z,0.70
2023-04-11T12:23:56.627Z,0.80
2023-04-11T12:25:15.067Z,0.95
2023-04-11T12:26:17.967Z,0.93
2023-04-11T12:27:20.283Z,1.40
2023-04-11T12:28:22.217Z,0.70
2023-04-11T12:29:26.455Z,0.83
2023-04-11T12:30:29.986Z,0.77
2023-04-11T12:31:32.049Z,1.00
2023-04-11T12:32:34.420Z,0.80
2023-04-11T12:33:36.453Z,0.80
2023-04-11T12:34:38.192Z,0.82
2023-04-11T12:35:40.107Z,0.73
2023-04-11T12:36:42.176Z,0.82
2023-04-11T12:37:44.513Z,0.80
2023-04-11T12:38:46.504Z,0.97
2023-04-11T12:39:48.588Z,0.87
2023-04-11T12:41:00.388Z,1.00
2023-04-11T12:42:11.777Z,0.80
2023-04-11T12:43:13.887Z,0.90
2023-04-11T12:44:15.741Z,0.80
2023-04-11T12:45:17.689Z,0.80
2023-04-11T12:46:19.801Z,0.85
2023-04-11T12:47:21.822Z,0.77
2023-04-11T12:48:23.751Z,0.60
2023-04-11T12:49:25.735Z,1.27
2023-04-11T12:50:27.671Z,0.90
2023-04-11T12:51:29.747Z,0.70
2023-04-11T12:52:31.544Z,1.00
2023-04-11T12:53:33.381Z,0.90
2023-04-11T12:54:36.298Z,0.77
2023-04-11T12:55:38.309Z,0.73
2023-04-11T12:56:40.906Z,0.83
2023-04-11T12:57:43.887Z,0.83
2023-04-11T12:58:45.906Z,0.67
2023-04-11T12:59:48.302Z,0.70
2023-04-11T13:00:50.735Z,0.60
2023-04-11T13:01:53.288Z,0.60
2023-04-11T13:02:55.421Z,0.63
2023-04-11T13:03:57.686Z,0.53
2023-04-11T13:05:02.672Z,0.60
2023-04-11T13:06:05.041Z,0.60
2023-04-11T13:07:06.926Z,0.77
2023-04-11T13:08:08.836Z,0.50
2023-04-11T13:09:14.599Z,0.73
2023-04-11T13:10:16.812Z,0.70
2023-04-11T13:11:18.806Z,0.73
2023-04-11T13:12:20.852Z,0.50
2023-04-11T13:13:22.906Z,0.43
2023-04-11T13:14:25.225Z,0.70
2023-04-11T13:15:27.563Z,0.70
2023-04-11T13:16:29.560Z,1.00
2023-04-11T13:17:31.788Z,0.50
2023-04-11T13:18:33.776Z,0.50
2023-04-11T13:19:35.766Z,0.60
2023-04-11T13:20:37.630Z,0.73
2023-04-11T13:21:39.623Z,0.60
2023-04-11T13:22:43.173Z,0.60
2023-04-11T13:23:45.873Z,0.68
2023-04-11T13:24:47.803Z,0.50
2023-04-11T13:25:49.833Z,0.63
2023-04-11T13:26:51.973Z,0.70
2023-04-11T13:27:53.855Z,0.57
2023-04-11T13:28:56.322Z,0.63
2023-04-11T13:29:58.482Z,0.60
2023-04-11T13:31:00.625Z,0.55
2023-04-11T13:32:02.691Z,0.80
2023-04-11T13:33:04.809Z,0.60
2023-04-11T13:34:06.856Z,0.80
2023-04-11T13:35:09.299Z,0.70
2023-04-11T13:36:13.317Z,0.50
2023-04-11T13:37:15.596Z,0.77
2023-04-11T13:38:17.497Z,0.60
2023-04-11T13:39:19.343Z,0.40
2023-04-11T13:40:21.142Z,0.70
2023-04-11T13:41:24.589Z,0.67
2023-04-11T13:42:26.573Z,0.50
2023-04-11T13:43:28.924Z,0.60
2023-04-11T13:44:30.856Z,0.40
2023-04-11T13:45:32.736Z,0.60
2023-04-11T13:46:34.534Z,0.60
2023-04-11T13:47:38.791Z,0.63
2023-04-11T13:48:40.906Z,0.40
2023-04-11T13:49:42.711Z,0.60
2023-04-11T13:50:44.532Z,0.70
2023-04-11T13:51:47.632Z,0.90
2023-04-11T13:52:49.605Z,37.00
2023-04-11T13:53:51.815Z,34.60
2023-04-11T13:54:53.722Z,28.23
2023-04-11T13:55:55.790Z,19.38
2023-04-11T13:56:59.303Z,16.08
2023-04-11T13:58:01.289Z,11.43
2023-04-11T13:59:03.328Z,11.47
2023-04-11T14:00:10.882Z,9.93
2023-04-11T14:01:12.807Z,8.30
2023-04-11T14:02:14.739Z,7.27
2023-04-11T14:03:16.946Z,6.72
2023-04-11T14:04:19.008Z,6.28
2023-04-11T14:05:20.945Z,5.93
2023-04-11T14:06:22.818Z,6.17
2023-04-11T14:07:24.668Z,6.43
2023-04-11T14:08:29.354Z,5.57